sensor_id;sensor_type;location;lat;lon;timestamp;P1;durP1;ratioP1;P2;durP2;ratioP2
3405;SDS011;10008;48.682;9.016;2023-08-01T00:01:51;12.80;;;11.50;;
3405;SDS011;10008;48.682;9.016;2023-08-01T00:04:17;12.10;;;10.90;;
3405;SDS011;10008;48.682;9.016;2023-08-01T00:06:42;14.87;;;11.57;;
3405;SDS011;10008;48.682;9.016;2023-08-01T00:09:08;13.30;;;11.57;;
3405;SDS011;10008;48.682;9.016;2023-08-01T00:11:34;12.30;;;11.10;;
3405;SDS011;10008;48.682;9.016;2023-08-01T00:14:00;13.47;;;12.17;;
3405;SDS011;10008;48.682;9.016;2023-08-01T00:16:26;12.73;;;11.53;;
3405;SDS011;10008;48.682;9.016;2023-08-01T00:18:52;12.67;;;11.37;;
3405;SDS011;10008;48.682;9.016;2023-08-01T00:21:18;15.80;;;11.93;;
3405;SDS011;10008;48.682;9.016;2023-08-01T00:23:43;12.50;;;11.30;;
3405;SDS011;10008;48.682;9.016;2023-08-01T00:26:09;15.00;;;11.67;;
3405;SDS011;10008;48.682;9.016;2023-08-01T00:28:35;12.83;;;11.53;;
3405;SDS011;10008;48.682;9.016;2023-08-01T00:31:01;12.50;;;11.30;;
3405;SDS011;10008;48.682;9.016;2023-08-01T00:33:28;13.80;;;12.50;;
3405;SDS011;10008;48.682;9.016;2023-08-01T00:35:54;12.70;;;11.37;;
3405;SDS011;10008;48.682;9.016;2023-08-01T00:38:19;13.33;;;11.93;;
3405;SDS011;10008;48.682;9.016;2023-08-01T00:40:45;12.77;;;11.53;;
3405;SDS011;10008;48.682;9.016;2023-08-01T00:43:12;12.50;;;11.30;;
3405;SDS011;10008;48.682;9.016;2023-08-01T00:45:37;13.37;;;12.10;;
3405;SDS011;10008;48.682;9.016;2023-08-01T00:48:03;12.73;;;11.40;;
3405;SDS011;10008;48.682;9.016;2023-08-01T00:50:29;13.27;;;11.07;;
3405;SDS011;10008;48.682;9.016;2023-08-01T00:52:55;12.83;;;11.50;;
3405;SDS011;10008;48.682;9.016;2023-08-01T00:55:21;13.10;;;11.80;;
3405;SDS011;10008;48.682;9.016;2023-08-01T00:57:48;12.77;;;11.57;;
3405;SDS011;10008;48.682;9.016;2023-08-01T01:00:14;17.43;;;12.90;;
3405;SDS011;10008;48.682;9.016;2023-08-01T01:02:39;12.53;;;11.43;;
3405;SDS011;10008;48.682;9.016;2023-08-01T01:05:05;12.37;;;11.17;;
3405;SDS011;10008;48.682;9.016;2023-08-01T01:07:31;12.80;;;11.60;;
3405;SDS011;10008;48.682;9.016;2023-08-01T01:09:58;13.37;;;12.00;;
3405;SDS011;10008;48.682;9.016;2023-08-01T01:12:25;12.97;;;11.77;;
3405;SDS011;10008;48.682;9.016;2023-08-01T01:14:51;13.53;;;12.10;;
3405;SDS011;10008;48.682;9.016;2023-08-01T01:17:16;12.73;;;11.43;;
3405;SDS011;10008;48.682;9.016;2023-08-01T01:19:42;13.10;;;11.80;;
3405;SDS011;10008;48.682;9.016;2023-08-01T01:22:08;14.33;;;11.83;;
3405;SDS011;10008;48.682;9.016;2023-08-01T01:24:35;13.07;;;11.77;;
3405;SDS011;10008;48.682;9.016;2023-08-01T01:27:03;13.27;;;11.00;;
3405;SDS011;10008;48.682;9.016;2023-08-01T01:29:30;14.73;;;12.30;;
3405;SDS011;10008;48.682;9.016;2023-08-01T01:31:57;12.50;;;11.30;;
3405;SDS011;10008;48.682;9.016;2023-08-01T01:34:25;15.50;;;13.60;;
3405;SDS011;10008;48.682;9.016;2023-08-01T01:36:52;12.83;;;11.53;;
3405;SDS011;10008;48.682;9.016;2023-08-01T01:39:18;14.00;;;12.50;;
3405;SDS011;10008;48.682;9.016;2023-08-01T01:41:44;14.53;;;13.03;;
3405;SDS011;10008;48.682;9.016;2023-08-01T01:44:09;13.80;;;12.40;;
3405;SDS011;10008;48.682;9.016;2023-08-01T01:46:35;14.33;;;12.90;;
3405;SDS011;10008;48.682;9.016;2023-08-01T01:49:01;13.93;;;12.47;;
3405;SDS011;10008;48.682;9.016;2023-08-01T01:51:27;15.60;;;12.93;;
3405;SDS011;10008;48.682;9.016;2023-08-01T01:53:54;14.37;;;12.87;;
3405;SDS011;10008;48.682;9.016;2023-08-01T01:56:21;14.67;;;12.93;;
3405;SDS011;10008;48.682;9.016;2023-08-01T01:58:47;14.17;;;12.40;;
3405;SDS011;10008;48.682;9.016;2023-08-01T02:01:13;14.40;;;13.00;;
3405;SDS011;10008;48.682;9.016;2023-08-01T02:03:39;13.83;;;12.30;;
3405;SDS011;10008;48.682;9.016;2023-08-01T02:06:05;13.77;;;12.47;;
3405;SDS011;10008;48.682;9.016;2023-08-01T02:08:30;16.17;;;12.90;;
3405;SDS011;10008;48.682;9.016;2023-08-01T02:10:57;14.60;;;13.13;;
3405;SDS011;10008;48.682;9.016;2023-08-01T02:13:23;14.33;;;12.83;;
3405;SDS011;10008;48.682;9.016;2023-08-01T02:15:50;17.37;;;12.67;;
3405;SDS011;10008;48.682;9.016;2023-08-01T02:18:16;13.43;;;12.13;;
3405;SDS011;10008;48.682;9.016;2023-08-01T02:20:42;13.53;;;12.13;;
3405;SDS011;10008;48.682;9.016;2023-08-01T02:23:07;15.00;;;12.13;;
3405;SDS011;10008;48.682;9.016;2023-08-01T02:25:37;14.27;;;12.77;;
3405;SDS011;10008;48.682;9.016;2023-08-01T02:28:05;14.23;;;12.43;;
3405;SDS011;10008;48.682;9.016;2023-08-01T02:30:34;13.30;;;12.00;;
3405;SDS011;10008;48.682;9.016;2023-08-01T02:33:00;13.17;;;11.97;;
3405;SDS011;10008;48.682;9.016;2023-08-01T02:35:26;13.27;;;11.90;;
3405;SDS011;10008;48.682;9.016;2023-08-01T02:37:53;12.50;;;11.20;;
3405;SDS011;10008;48.682;9.016;2023-08-01T02:40:20;17.50;;;12.20;;
3405;SDS011;10008;48.682;9.016;2023-08-01T02:42:45;11.50;;;10.47;;
3405;SDS011;10008;48.682;9.016;2023-08-01T02:45:11;12.00;;;10.90;;
3405;SDS011;10008;48.682;9.016;2023-08-01T02:47:37;12.73;;;11.43;;
3405;SDS011;10008;48.682;9.016;2023-08-01T02:50:03;12.10;;;11.00;;
3405;SDS011;10008;48.682;9.016;2023-08-01T02:52:29;12.73;;;11.23;;
3405;SDS011;10008;48.682;9.016;2023-08-01T02:54:55;12.40;;;11.20;;
3405;SDS011;10008;48.682;9.016;2023-08-01T02:57:21;12.40;;;11.17;;
3405;SDS011;10008;48.682;9.016;2023-08-01T02:59:46;12.83;;;11.47;;
3405;SDS011;10008;48.682;9.016;2023-08-01T03:02:12;12.70;;;11.30;;
3405;SDS011;10008;48.682;9.016;2023-08-01T03:04:38;14.30;;;12.20;;
3405;SDS011;10008;48.682;9.016;2023-08-01T03:07:04;15.37;;;12.93;;
3405;SDS011;10008;48.682;9.016;2023-08-01T03:09:29;13.10;;;11.80;;
3405;SDS011;10008;48.682;9.016;2023-08-01T03:11:57;13.50;;;12.10;;
3405;SDS011;10008;48.682;9.016;2023-08-01T03:14:22;14.13;;;12.33;;
3405;SDS011;10008;48.682;9.016;2023-08-01T03:16:48;14.30;;;11.83;;
3405;SDS011;10008;48.682;9.016;2023-08-01T03:19:15;16.03;;;12.10;;
3405;SDS011;10008;48.682;9.016;2023-08-01T03:21:40;13.03;;;11.83;;
3405;SDS011;10008;48.682;9.016;2023-08-01T03:24:06;16.90;;;12.40;;
3405;SDS011;10008;48.682;9.016;2023-08-01T03:26:36;13.20;;;11.93;;
3405;SDS011;10008;48.682;9.016;2023-08-01T03:29:02;13.50;;;12.30;;
3405;SDS011;10008;48.682;9.016;2023-08-01T03:31:28;13.43;;;12.13;;
3405;SDS011;10008;48.682;9.016;2023-08-01T03:33:54;13.97;;;12.60;;
3405;SDS011;10008;48.682;9.016;2023-08-01T03:36:20;14.20;;;12.80;;
3405;SDS011;10008;48.682;9.016;2023-08-01T03:38:46;14.63;;;12.63;;
3405;SDS011;10008;48.682;9.016;2023-08-01T03:41:12;13.60;;;12.30;;
3405;SDS011;10008;48.682;9.016;2023-08-01T03:43:38;13.47;;;12.07;;
3405;SDS011;10008;48.682;9.016;2023-08-01T03:46:04;13.57;;;12.37;;
3405;SDS011;10008;48.682;9.016;2023-08-01T03:48:30;13.20;;;12.00;;
3405;SDS011;10008;48.682;9.016;2023-08-01T03:50:56;13.20;;;12.00;;
3405;SDS011;10008;48.682;9.016;2023-08-01T03:53:22;13.33;;;12.07;;
3405;SDS011;10008;48.682;9.016;2023-08-01T03:55:48;13.43;;;12.20;;
3405;SDS011;10008;48.682;9.016;2023-08-01T03:58:14;14.23;;;12.10;;
3405;SDS011;10008;48.682;9.016;2023-08-01T04:00:40;13.27;;;12.00;;
3405;SDS011;10008;48.682;9.016;2023-08-01T04:03:05;13.53;;;12.20;;
3405;SDS011;10008;48.682;9.016;2023-08-01T04:05:31;14.33;;;12.47;;
3405;SDS011;10008;48.682;9.016;2023-08-01T04:07:57;14.97;;;13.47;;
3405;SDS011;10008;48.682;9.016;2023-08-01T04:10:23;14.03;;;12.67;;
3405;SDS011;10008;48.682;9.016;2023-08-01T04:12:49;14.70;;;13.20;;
3405;SDS011;10008;48.682;9.016;2023-08-01T04:15:15;15.07;;;13.57;;
3405;SDS011;10008;48.682;9.016;2023-08-01T04:17:41;14.87;;;12.53;;
3405;SDS011;10008;48.682;9.016;2023-08-01T04:20:06;14.50;;;12.60;;
3405;SDS011;10008;48.682;9.016;2023-08-01T04:22:33;14.30;;;12.87;;
3405;SDS011;10008;48.682;9.016;2023-08-01T04:24:58;13.77;;;12.37;;
3405;SDS011;10008;48.682;9.016;2023-08-01T04:27:26;13.40;;;12.10;;
3405;SDS011;10008;48.682;9.016;2023-08-01T04:29:51;13.10;;;11.90;;
3405;SDS011;10008;48.682;9.016;2023-08-01T04:32:17;13.40;;;12.00;;
3405;SDS011;10008;48.682;9.016;2023-08-01T04:34:43;13.30;;;11.90;;
3405;SDS011;10008;48.682;9.016;2023-08-01T04:37:09;15.07;;;12.30;;
3405;SDS011;10008;48.682;9.016;2023-08-01T04:39:36;13.47;;;12.10;;
3405;SDS011;10008;48.682;9.016;2023-08-01T04:42:02;14.47;;;12.40;;
3405;SDS011;10008;48.682;9.016;2023-08-01T04:44:28;13.57;;;11.87;;
3405;SDS011;10008;48.682;9.016;2023-08-01T04:46:54;13.07;;;11.90;;
3405;SDS011;10008;48.682;9.016;2023-08-01T04:49:20;13.87;;;12.47;;
3405;SDS011;10008;48.682;9.016;2023-08-01T04:51:47;14.33;;;12.80;;
3405;SDS011;10008;48.682;9.016;2023-08-01T04:54:14;13.90;;;12.40;;
3405;SDS011;10008;48.682;9.016;2023-08-01T04:56:39;13.47;;;12.27;;
3405;SDS011;10008;48.682;9.016;2023-08-01T04:59:05;13.90;;;12.50;;
3405;SDS011;10008;48.682;9.016;2023-08-01T05:01:31;13.90;;;12.50;;
3405;SDS011;10008;48.682;9.016;2023-08-01T05:03:56;13.93;;;12.63;;
3405;SDS011;10008;48.682;9.016;2023-08-01T05:06:24;14.87;;;13.30;;
3405;SDS011;10008;48.682;9.016;2023-08-01T05:08:50;14.23;;;12.50;;
3405;SDS011;10008;48.682;9.016;2023-08-01T05:11:15;14.00;;;12.60;;
3405;SDS011;10008;48.682;9.016;2023-08-01T05:13:41;15.07;;;13.47;;
3405;SDS011;10008;48.682;9.016;2023-08-01T05:16:07;15.73;;;14.13;;
3405;SDS011;10008;48.682;9.016;2023-08-01T05:18:32;14.93;;;13.43;;
3405;SDS011;10008;48.682;9.016;2023-08-01T05:20:58;14.70;;;13.30;;
3405;SDS011;10008;48.682;9.016;2023-08-01T05:23:24;16.57;;;13.90;;
3405;SDS011;10008;48.682;9.016;2023-08-01T05:25:49;15.93;;;14.23;;
3405;SDS011;10008;48.682;9.016;2023-08-01T05:28:15;15.10;;;13.60;;
3405;SDS011;10008;48.682;9.016;2023-08-01T05:30:41;15.57;;;13.50;;
3405;SDS011;10008;48.682;9.016;2023-08-01T05:33:06;15.80;;;14.30;;
3405;SDS011;10008;48.682;9.016;2023-08-01T05:35:32;15.80;;;14.10;;
3405;SDS011;10008;48.682;9.016;2023-08-01T05:37:58;15.40;;;13.90;;
3405;SDS011;10008;48.682;9.016;2023-08-01T05:40:25;15.93;;;14.20;;
3405;SDS011;10008;48.682;9.016;2023-08-01T05:42:50;15.60;;;14.00;;
3405;SDS011;10008;48.682;9.016;2023-08-01T05:45:16;15.10;;;13.50;;
3405;SDS011;10008;48.682;9.016;2023-08-01T05:47:42;15.10;;;13.60;;
3405;SDS011;10008;48.682;9.016;2023-08-01T05:50:08;15.63;;;14.03;;
3405;SDS011;10008;48.682;9.016;2023-08-01T05:52:34;17.50;;;14.57;;
3405;SDS011;10008;48.682;9.016;2023-08-01T05:55:00;15.17;;;13.70;;
3405;SDS011;10008;48.682;9.016;2023-08-01T05:57:25;16.73;;;14.93;;
3405;SDS011;10008;48.682;9.016;2023-08-01T05:59:51;16.67;;;15.03;;
3405;SDS011;10008;48.682;9.016;2023-08-01T06:02:17;17.43;;;13.80;;
3405;SDS011;10008;48.682;9.016;2023-08-01T06:04:43;16.00;;;14.00;;
3405;SDS011;10008;48.682;9.016;2023-08-01T06:07:08;15.50;;;13.90;;
3405;SDS011;10008;48.682;9.016;2023-08-01T06:09:34;15.63;;;14.13;;
3405;SDS011;10008;48.682;9.016;2023-08-01T06:12:00;16.07;;;14.37;;
3405;SDS011;10008;48.682;9.016;2023-08-01T06:14:25;17.20;;;15.50;;
3405;SDS011;10008;48.682;9.016;2023-08-01T06:16:51;17.07;;;15.47;;
3405;SDS011;10008;48.682;9.016;2023-08-01T06:19:17;16.03;;;14.57;;
3405;SDS011;10008;48.682;9.016;2023-08-01T06:21:43;17.50;;;15.83;;
3405;SDS011;10008;48.682;9.016;2023-08-01T06:24:08;17.37;;;15.67;;
3405;SDS011;10008;48.682;9.016;2023-08-01T06:26:35;16.70;;;15.00;;
3405;SDS011;10008;48.682;9.016;2023-08-01T06:29:01;17.87;;;16.07;;
3405;SDS011;10008;48.682;9.016;2023-08-01T06:31:27;17.33;;;15.73;;
3405;SDS011;10008;48.682;9.016;2023-08-01T06:33:52;18.33;;;16.13;;
3405;SDS011;10008;48.682;9.016;2023-08-01T06:36:18;20.07;;;16.30;;
3405;SDS011;10008;48.682;9.016;2023-08-01T06:38:44;17.67;;;15.97;;
3405;SDS011;10008;48.682;9.016;2023-08-01T06:41:09;18.13;;;16.37;;
3405;SDS011;10008;48.682;9.016;2023-08-01T06:43:35;18.63;;;16.73;;
3405;SDS011;10008;48.682;9.016;2023-08-01T06:46:03;17.97;;;16.27;;
3405;SDS011;10008;48.682;9.016;2023-08-01T06:48:29;17.90;;;16.03;;
3405;SDS011;10008;48.682;9.016;2023-08-01T06:50:56;17.63;;;15.77;;
3405;SDS011;10008;48.682;9.016;2023-08-01T06:53:21;17.03;;;15.43;;
3405;SDS011;10008;48.682;9.016;2023-08-01T06:55:47;18.07;;;16.37;;
3405;SDS011;10008;48.682;9.016;2023-08-01T06:58:13;18.40;;;16.50;;
3405;SDS011;10008;48.682;9.016;2023-08-01T07:00:39;17.83;;;16.13;;
3405;SDS011;10008;48.682;9.016;2023-08-01T07:03:04;19.00;;;17.03;;
3405;SDS011;10008;48.682;9.016;2023-08-01T07:05:30;17.93;;;16.13;;
3405;SDS011;10008;48.682;9.016;2023-08-01T07:07:56;18.03;;;16.33;;
3405;SDS011;10008;48.682;9.016;2023-08-01T07:10:23;19.13;;;17.23;;
3405;SDS011;10008;48.682;9.016;2023-08-01T07:12:48;18.80;;;17.00;;
3405;SDS011;10008;48.682;9.016;2023-08-01T07:15:14;19.47;;;16.63;;
3405;SDS011;10008;48.682;9.016;2023-08-01T07:17:40;18.10;;;16.20;;
3405;SDS011;10008;48.682;9.016;2023-08-01T07:20:06;18.07;;;16.20;;
3405;SDS011;10008;48.682;9.016;2023-08-01T07:22:32;16.27;;;14.53;;
3405;SDS011;10008;48.682;9.016;2023-08-01T07:24:57;19.43;;;14.57;;
3405;SDS011;10008;48.682;9.016;2023-08-01T07:27:23;16.17;;;14.43;;
3405;SDS011;10008;48.682;9.016;2023-08-01T07:29:49;15.87;;;14.27;;
3405;SDS011;10008;48.682;9.016;2023-08-01T07:32:15;15.20;;;13.70;;
3405;SDS011;10008;48.682;9.016;2023-08-01T07:34:40;16.90;;;13.97;;
3405;SDS011;10008;48.682;9.016;2023-08-01T07:37:06;14.43;;;12.93;;
3405;SDS011;10008;48.682;9.016;2023-08-01T07:39:32;15.13;;;13.30;;
3405;SDS011;10008;48.682;9.016;2023-08-01T07:42:00;17.90;;;15.10;;
3405;SDS011;10008;48.682;9.016;2023-08-01T07:44:25;18.53;;;16.63;;
3405;SDS011;10008;48.682;9.016;2023-08-01T07:46:51;19.83;;;17.77;;
3405;SDS011;10008;48.682;9.016;2023-08-01T07:49:17;19.20;;;17.30;;
3405;SDS011;10008;48.682;9.016;2023-08-01T07:51:43;19.17;;;16.90;;
3405;SDS011;10008;48.682;9.016;2023-08-01T07:54:09;19.27;;;16.10;;
3405;SDS011;10008;48.682;9.016;2023-08-01T07:56:35;18.27;;;16.10;;
3405;SDS011;10008;48.682;9.016;2023-08-01T07:59:01;17.53;;;15.63;;
3405;SDS011;10008;48.682;9.016;2023-08-01T08:01:27;18.53;;;15.70;;
3405;SDS011;10008;48.682;9.016;2023-08-01T08:03:52;17.87;;;16.17;;
3405;SDS011;10008;48.682;9.016;2023-08-01T08:06:18;19.20;;;16.97;;
3405;SDS011;10008;48.682;9.016;2023-08-01T08:08:46;17.33;;;15.30;;
3405;SDS011;10008;48.682;9.016;2023-08-01T08:11:12;17.97;;;15.00;;
3405;SDS011;10008;48.682;9.016;2023-08-01T08:13:37;19.40;;;15.33;;
3405;SDS011;10008;48.682;9.016;2023-08-01T08:16:04;19.10;;;15.70;;
3405;SDS011;10008;48.682;9.016;2023-08-01T08:18:31;17.40;;;15.07;;
3405;SDS011;10008;48.682;9.016;2023-08-01T08:20:56;17.60;;;15.80;;
3405;SDS011;10008;48.682;9.016;2023-08-01T08:23:22;17.53;;;15.63;;
3405;SDS011;10008;48.682;9.016;2023-08-01T08:25:48;17.47;;;14.83;;
3405;SDS011;10008;48.682;9.016;2023-08-01T08:28:15;18.43;;;15.00;;
3405;SDS011;10008;48.682;9.016;2023-08-01T08:30:41;16.50;;;14.80;;
3405;SDS011;10008;48.682;9.016;2023-08-01T08:33:07;17.03;;;15.10;;
3405;SDS011;10008;48.682;9.016;2023-08-01T08:35:33;18.30;;;15.50;;
3405;SDS011;10008;48.682;9.016;2023-08-01T08:38:02;16.20;;;14.50;;
3405;SDS011;10008;48.682;9.016;2023-08-01T08:40:31;16.07;;;14.33;;
3405;SDS011;10008;48.682;9.016;2023-08-01T08:42:59;16.57;;;14.40;;
3405;SDS011;10008;48.682;9.016;2023-08-01T08:45:27;19.03;;;13.80;;
3405;SDS011;10008;48.682;9.016;2023-08-01T08:47:58;19.87;;;15.07;;
3405;SDS011;10008;48.682;9.016;2023-08-01T08:50:26;16.93;;;15.17;;
3405;SDS011;10008;48.682;9.016;2023-08-01T08:52:53;15.47;;;13.87;;
3405;SDS011;10008;48.682;9.016;2023-08-01T08:55:19;15.37;;;13.80;;
3405;SDS011;10008;48.682;9.016;2023-08-01T08:57:50;15.73;;;13.93;;
3405;SDS011;10008;48.682;9.016;2023-08-01T09:00:17;15.40;;;13.80;;
3405;SDS011;10008;48.682;9.016;2023-08-01T09:02:44;14.53;;;13.13;;
3405;SDS011;10008;48.682;9.016;2023-08-01T09:05:10;14.70;;;12.93;;
3405;SDS011;10008;48.682;9.016;2023-08-01T09:07:38;15.60;;;13.73;;
3405;SDS011;10008;48.682;9.016;2023-08-01T09:10:07;15.23;;;13.70;;
3405;SDS011;10008;48.682;9.016;2023-08-01T09:12:36;14.90;;;13.30;;
3405;SDS011;10008;48.682;9.016;2023-08-01T09:15:02;15.13;;;13.53;;
3405;SDS011;10008;48.682;9.016;2023-08-01T09:17:28;15.00;;;13.50;;
3405;SDS011;10008;48.682;9.016;2023-08-01T09:20:15;15.00;;;13.50;;
3405;SDS011;10008;48.682;9.016;2023-08-01T09:22:46;14.50;;;13.00;;
3405;SDS011;10008;48.682;9.016;2023-08-01T09:25:12;14.47;;;13.00;;
3405;SDS011;10008;48.682;9.016;2023-08-01T09:27:38;13.70;;;12.40;;
3405;SDS011;10008;48.682;9.016;2023-08-01T09:30:09;13.10;;;11.90;;
3405;SDS011;10008;48.682;9.016;2023-08-01T09:32:38;13.27;;;11.97;;
3405;SDS011;10008;48.682;9.016;2023-08-01T09:35:04;14.90;;;12.20;;
3405;SDS011;10008;48.682;9.016;2023-08-01T09:37:40;11.80;;;10.70;;
3405;SDS011;10008;48.682;9.016;2023-08-01T09:40:08;12.70;;;11.50;;
3405;SDS011;10008;48.682;9.016;2023-08-01T09:42:38;13.40;;;12.10;;
3405;SDS011;10008;48.682;9.016;2023-08-01T09:45:06;11.80;;;10.70;;
3405;SDS011;10008;48.682;9.016;2023-08-01T09:47:42;12.20;;;11.00;;
3405;SDS011;10008;48.682;9.016;2023-08-01T09:50:09;12.80;;;10.97;;
3405;SDS011;10008;48.682;9.016;2023-08-01T09:52:36;12.77;;;11.57;;
3405;SDS011;10008;48.682;9.016;2023-08-01T09:55:02;12.30;;;11.10;;
3405;SDS011;10008;48.682;9.016;2023-08-01T09:57:29;11.77;;;10.67;;
3405;SDS011;10008;48.682;9.016;2023-08-01T09:59:56;11.77;;;10.67;;
3405;SDS011;10008;48.682;9.016;2023-08-01T10:02:23;10.97;;;9.87;;
3405;SDS011;10008;48.682;9.016;2023-08-01T10:04:54;10.73;;;9.43;;
3405;SDS011;10008;48.682;9.016;2023-08-01T10:07:23;10.43;;;9.43;;
3405;SDS011;10008;48.682;9.016;2023-08-01T10:09:53;11.40;;;9.53;;
3405;SDS011;10008;48.682;9.016;2023-08-01T10:12:20;11.03;;;10.00;;
3405;SDS011;10008;48.682;9.016;2023-08-01T10:14:50;11.50;;;10.40;;
3405;SDS011;10008;48.682;9.016;2023-08-01T10:17:17;11.50;;;10.40;;
3405;SDS011;10008;48.682;9.016;2023-08-01T10:19:44;11.40;;;10.30;;
3405;SDS011;10008;48.682;9.016;2023-08-01T10:22:11;10.93;;;9.93;;
3405;SDS011;10008;48.682;9.016;2023-08-01T10:24:38;10.80;;;9.80;;
3405;SDS011;10008;48.682;9.016;2023-08-01T10:27:11;11.10;;;10.10;;
3405;SDS011;10008;48.682;9.016;2023-08-01T10:29:43;11.20;;;10.20;;
3405;SDS011;10008;48.682;9.016;2023-08-01T10:32:10;12.23;;;11.10;;
3405;SDS011;10008;48.682;9.016;2023-08-01T10:34:36;12.30;;;11.20;;
3405;SDS011;10008;48.682;9.016;2023-08-01T10:37:02;12.37;;;11.27;;
3405;SDS011;10008;48.682;9.016;2023-08-01T10:39:28;12.80;;;11.70;;
3405;SDS011;10008;48.682;9.016;2023-08-01T10:42:01;12.20;;;11.10;;
3405;SDS011;10008;48.682;9.016;2023-08-01T10:44:28;11.30;;;10.40;;
3405;SDS011;10008;48.682;9.016;2023-08-01T10:46:56;10.67;;;9.57;;
3405;SDS011;10008;48.682;9.016;2023-08-01T10:52:23;13.57;;;11.33;;
3405;SDS011;10008;48.682;9.016;2023-08-01T10:55:25;13.97;;;12.57;;
3405;SDS011;10008;48.682;9.016;2023-08-01T10:57:47;14.50;;;13.20;;
3405;SDS011;10008;48.682;9.016;2023-08-01T11:00:17;13.67;;;12.47;;
3405;SDS011;10008;48.682;9.016;2023-08-01T11:02:49;13.80;;;12.50;;
3405;SDS011;10008;48.682;9.016;2023-08-01T11:05:17;13.47;;;12.27;;
3405;SDS011;10008;48.682;9.016;2023-08-01T11:07:52;12.97;;;11.77;;
3405;SDS011;10008;48.682;9.016;2023-08-01T11:10:20;13.90;;;12.60;;
3405;SDS011;10008;48.682;9.016;2023-08-01T11:12:45;14.70;;;13.30;;
3405;SDS011;10008;48.682;9.016;2023-08-01T11:15:12;14.20;;;12.90;;
3405;SDS011;10008;48.682;9.016;2023-08-01T11:17:39;13.50;;;12.20;;
3405;SDS011;10008;48.682;9.016;2023-08-01T11:20:07;14.20;;;12.80;;
3405;SDS011;10008;48.682;9.016;2023-08-01T11:22:34;14.67;;;13.30;;
3405;SDS011;10008;48.682;9.016;2023-08-01T11:25:01;15.50;;;14.10;;
3405;SDS011;10008;48.682;9.016;2023-08-01T11:27:27;15.67;;;14.07;;
3405;SDS011;10008;48.682;9.016;2023-08-01T11:29:54;15.13;;;13.73;;
3405;SDS011;10008;48.682;9.016;2023-08-01T11:32:20;14.83;;;13.50;;
3405;SDS011;10008;48.682;9.016;2023-08-01T11:34:46;14.57;;;13.27;;
3405;SDS011;10008;48.682;9.016;2023-08-01T11:37:13;14.60;;;13.30;;
3405;SDS011;10008;48.682;9.016;2023-08-01T11:39:41;14.60;;;13.20;;
3405;SDS011;10008;48.682;9.016;2023-08-01T11:42:07;15.10;;;13.60;;
3405;SDS011;10008;48.682;9.016;2023-08-01T11:44:38;14.87;;;13.47;;
3405;SDS011;10008;48.682;9.016;2023-08-01T11:47:09;14.50;;;13.10;;
3405;SDS011;10008;48.682;9.016;2023-08-01T11:49:44;15.10;;;13.70;;
3405;SDS011;10008;48.682;9.016;2023-08-01T11:52:24;14.93;;;13.53;;
3405;SDS011;10008;48.682;9.016;2023-08-01T11:54:50;14.80;;;13.40;;
3405;SDS011;10008;48.682;9.016;2023-08-01T11:57:16;14.87;;;13.47;;
3405;SDS011;10008;48.682;9.016;2023-08-01T11:59:46;14.70;;;13.30;;
3405;SDS011;10008;48.682;9.016;2023-08-01T12:04:48;15.20;;;13.70;;
3405;SDS011;10008;48.682;9.016;2023-08-01T12:07:14;15.27;;;13.77;;
3405;SDS011;10008;48.682;9.016;2023-08-01T12:09:41;15.57;;;14.07;;
3405;SDS011;10008;48.682;9.016;2023-08-01T12:12:08;15.70;;;14.23;;
3405;SDS011;10008;48.682;9.016;2023-08-01T12:14:39;15.60;;;14.00;;
3405;SDS011;10008;48.682;9.016;2023-08-01T12:17:06;15.23;;;13.63;;
3405;SDS011;10008;48.682;9.016;2023-08-01T12:19:31;15.40;;;13.90;;
3405;SDS011;10008;48.682;9.016;2023-08-01T12:21:59;15.47;;;13.97;;
3405;SDS011;10008;48.682;9.016;2023-08-01T12:24:24;14.93;;;13.53;;
3405;SDS011;10008;48.682;9.016;2023-08-01T12:26:50;15.60;;;14.10;;
3405;SDS011;10008;48.682;9.016;2023-08-01T12:29:16;15.50;;;13.83;;
3405;SDS011;10008;48.682;9.016;2023-08-01T12:31:42;16.30;;;14.20;;
3405;SDS011;10008;48.682;9.016;2023-08-01T12:34:08;15.90;;;14.40;;
3405;SDS011;10008;48.682;9.016;2023-08-01T12:36:33;15.60;;;14.20;;
3405;SDS011;10008;48.682;9.016;2023-08-01T12:38:59;15.60;;;14.20;;
3405;SDS011;10008;48.682;9.016;2023-08-01T12:41:25;15.40;;;14.00;;
3405;SDS011;10008;48.682;9.016;2023-08-01T12:43:51;16.10;;;14.40;;
3405;SDS011;10008;48.682;9.016;2023-08-01T12:46:16;15.40;;;13.90;;
3405;SDS011;10008;48.682;9.016;2023-08-01T12:48:43;16.03;;;14.53;;
3405;SDS011;10008;48.682;9.016;2023-08-01T12:51:09;15.60;;;14.10;;
3405;SDS011;10008;48.682;9.016;2023-08-01T12:53:35;15.70;;;14.20;;
3405;SDS011;10008;48.682;9.016;2023-08-01T12:56:06;15.80;;;14.30;;
3405;SDS011;10008;48.682;9.016;2023-08-01T12:58:32;15.60;;;14.20;;
3405;SDS011;10008;48.682;9.016;2023-08-01T13:00:58;15.70;;;14.10;;
3405;SDS011;10008;48.682;9.016;2023-08-01T13:03:23;15.73;;;14.30;;
3405;SDS011;10008;48.682;9.016;2023-08-01T13:05:49;15.20;;;13.80;;
3405;SDS011;10008;48.682;9.016;2023-08-01T13:08:15;15.50;;;14.10;;
3405;SDS011;10008;48.682;9.016;2023-08-01T13:10:41;15.60;;;13.80;;
3405;SDS011;10008;48.682;9.016;2023-08-01T13:13:07;17.90;;;16.30;;
3405;SDS011;10008;48.682;9.016;2023-08-01T13:15:33;16.03;;;14.43;;
3405;SDS011;10008;48.682;9.016;2023-08-01T13:17:58;16.80;;;14.37;;
3405;SDS011;10008;48.682;9.016;2023-08-01T13:20:24;15.80;;;14.13;;
3405;SDS011;10008;48.682;9.016;2023-08-01T13:22:50;15.27;;;13.73;;
3405;SDS011;10008;48.682;9.016;2023-08-01T13:25:17;15.70;;;14.20;;
3405;SDS011;10008;48.682;9.016;2023-08-01T13:27:43;15.50;;;14.00;;
3405;SDS011;10008;48.682;9.016;2023-08-01T13:30:09;15.17;;;13.77;;
3405;SDS011;10008;48.682;9.016;2023-08-01T13:32:39;15.33;;;13.93;;
3405;SDS011;10008;48.682;9.016;2023-08-01T13:35:05;15.70;;;14.10;;
3405;SDS011;10008;48.682;9.016;2023-08-01T13:37:31;15.47;;;13.97;;
3405;SDS011;10008;48.682;9.016;2023-08-01T13:39:57;16.20;;;14.70;;
3405;SDS011;10008;48.682;9.016;2023-08-01T13:42:23;16.10;;;14.60;;
3405;SDS011;10008;48.682;9.016;2023-08-01T13:44:49;15.93;;;14.23;;
3405;SDS011;10008;48.682;9.016;2023-08-01T13:47:15;15.60;;;14.10;;
3405;SDS011;10008;48.682;9.016;2023-08-01T13:49:40;15.20;;;13.80;;
3405;SDS011;10008;48.682;9.016;2023-08-01T13:52:06;14.90;;;13.60;;
3405;SDS011;10008;48.682;9.016;2023-08-01T13:54:32;15.73;;;14.23;;
3405;SDS011;10008;48.682;9.016;2023-08-01T13:56:58;15.70;;;14.10;;
3405;SDS011;10008;48.682;9.016;2023-08-01T13:59:24;15.40;;;13.90;;
3405;SDS011;10008;48.682;9.016;2023-08-01T14:01:49;16.00;;;14.40;;
3405;SDS011;10008;48.682;9.016;2023-08-01T14:04:15;15.47;;;13.97;;
3405;SDS011;10008;48.682;9.016;2023-08-01T14:06:41;15.77;;;14.27;;
3405;SDS011;10008;48.682;9.016;2023-08-01T14:09:08;15.03;;;13.63;;
3405;SDS011;10008;48.682;9.016;2023-08-01T14:11:34;15.50;;;14.00;;
3405;SDS011;10008;48.682;9.016;2023-08-01T14:14:00;16.13;;;14.63;;
3405;SDS011;10008;48.682;9.016;2023-08-01T14:16:26;16.23;;;14.63;;
3405;SDS011;10008;48.682;9.016;2023-08-01T14:18:52;16.50;;;15.00;;
3405;SDS011;10008;48.682;9.016;2023-08-01T14:21:18;16.50;;;14.80;;
3405;SDS011;10008;48.682;9.016;2023-08-01T14:23:44;16.20;;;14.53;;
3405;SDS011;10008;48.682;9.016;2023-08-01T14:26:10;16.40;;;14.70;;
3405;SDS011;10008;48.682;9.016;2023-08-01T14:28:35;16.10;;;14.63;;
3405;SDS011;10008;48.682;9.016;2023-08-01T14:31:01;15.80;;;14.20;;
3405;SDS011;10008;48.682;9.016;2023-08-01T14:33:28;15.00;;;13.60;;
3405;SDS011;10008;48.682;9.016;2023-08-01T14:35:54;15.27;;;13.87;;
3405;SDS011;10008;48.682;9.016;2023-08-01T14:38:20;15.80;;;14.10;;